Time;durP1;ratioP1;P1;durP2;ratioP2;P2;SDS_P1;SDS_P2;PMS_P1;PMS_P2;Temp;Humidity;BMP_temperature;BMP_pressure;BME280_temperature;BME280_humidity;BME280_pressure;Samples;Min_cycle;Max_cycle;Signal;HPM_P1;HPM_P2
2022/12/25 00:01:58;;;;;;;26.20;11.68;;;5.00;99.90;;;;;;5088635;28;20961;-66
2022/12/25 00:04:24;;;;;;;23.42;10.00;;;5.10;99.90;;;;;;5121792;27;20044;-66
2022/12/25 00:06:49;;;;;;;28.40;11.02;;;5.10;99.90;;;;;;5089669;28;20032;-66
2022/12/25 00:09:18;;;;;;;28.60;11.82;;;5.10;99.90;;;;;;5125577;27;20043;-66
2022/12/25 00:11:43;;;;;;;36.28;13.65;;;5.20;99.90;;;;;;5126354;27;20031;-66
2022/12/25 00:14:09;;;;;;;39.78;13.00;;;5.20;99.90;;;;;;5091153;28;20039;-65
2022/12/25 00:16:35;;;;;;;38.63;13.32;;;5.30;99.90;;;;;;5092448;28;20103;-66
2022/12/25 00:19:00;;;;;;;41.47;12.60;;;5.30;99.90;;;;;;5091234;28;20070;-66
2022/12/25 00:21:26;;;;;;;33.13;13.38;;;5.40;99.90;;;;;;5092194;28;20055;-66
2022/12/25 00:23:57;;;;;;;40.38;12.95;;;5.40;99.90;;;;;;5087826;28;20050;-65
2022/12/25 00:26:24;;;;;;;33.70;12.63;;;5.40;99.90;;;;;;5125864;27;20547;-66
2022/12/25 00:28:53;;;;;;;29.52;13.02;;;5.40;99.90;;;;;;5109385;28;20062;-66
2022/12/25 00:31:21;;;;;;;38.13;12.63;;;5.40;99.90;;;;;;5125596;27;20048;-66
2022/12/25 00:33:48;;;;;;;36.10;12.25;;;5.50;99.90;;;;;;5074679;27;20031;-66
2022/12/25 00:36:16;;;;;;;30.08;11.63;;;5.50;99.90;;;;;;5087874;28;20035;-66
2022/12/25 00:38:42;;;;;;;35.88;11.27;;;5.50;99.90;;;;;;5092385;28;20119;-66
2022/12/25 00:41:14;;;;;;;31.50;10.88;;;5.40;99.90;;;;;;5086128;28;20129;-66
2022/12/25 00:43:42;;;;;;;35.47;14.43;;;5.50;99.90;;;;;;5125867;27;20043;-67
2022/12/25 00:46:10;;;;;;;45.03;12.35;;;5.40;99.90;;;;;;5085260;28;20515;-66
2022/12/25 00:48:36;;;;;;;36.97;12.30;;;5.50;99.90;;;;;;5093483;28;20043;-66
2022/12/25 00:51:05;;;;;;;39.97;12.93;;;5.40;99.90;;;;;;5091868;28;20115;-65
2022/12/25 00:53:31;;;;;;;30.95;11.07;;;5.50;99.90;;;;;;5090494;28;20039;-65
2022/12/25 00:56:01;;;;;;;37.88;12.13;;;5.50;99.90;;;;;;5075485;28;20038;-65
2022/12/25 00:58:29;;;;;;;40.05;12.60;;;5.50;99.90;;;;;;5126363;28;20050;-66
2022/12/25 01:00:55;;;;;;;30.48;10.90;;;5.60;99.90;;;;;;5073398;28;20056;-65
2022/12/25 01:03:21;;;;;;;23.00;10.07;;;5.60;99.90;;;;;;5091796;28;20042;-65
2022/12/25 01:06:02;;;;;;;24.05;10.88;;;5.50;99.90;;;;;;5091259;28;20120;-66
2022/12/25 01:08:33;;;;;;;26.60;9.38;;;5.50;99.90;;;;;;5075296;28;20059;-65
2022/12/25 01:11:01;;;;;;;38.22;10.13;;;5.50;99.90;;;;;;5074701;28;20047;-66
2022/12/25 01:13:28;;;;;;;44.50;11.38;;;5.60;99.90;;;;;;5086722;28;20061;-66
2022/12/25 01:15:54;;;;;;;35.95;11.00;;;5.50;99.90;;;;;;5090385;28;20048;-66
2022/12/25 01:18:21;;;;;;;38.30;12.48;;;5.60;99.90;;;;;;5075519;28;20035;-66
2022/12/25 01:20:47;;;;;;;38.28;11.55;;;5.70;99.90;;;;;;5090880;28;20071;-67
2022/12/25 01:23:13;;;;;;;49.60;12.73;;;5.70;99.90;;;;;;5091951;28;20455;-66
2022/12/25 01:25:39;;;;;;;39.95;12.48;;;5.80;99.90;;;;;;5091178;28;20040;-65
2022/12/25 01:28:05;;;;;;;40.03;11.57;;;5.80;99.90;;;;;;5091507;28;20048;-67
2022/12/25 01:30:31;;;;;;;34.30;11.95;;;5.90;99.90;;;;;;5091679;28;20586;-67
2022/12/25 01:32:57;;;;;;;47.13;13.70;;;5.90;99.90;;;;;;5091443;28;20478;-67
2022/12/25 01:35:22;;;;;;;42.53;12.38;;;5.90;99.90;;;;;;5090106;28;20108;-67
2022/12/25 01:37:49;;;;;;;38.53;12.40;;;6.00;99.90;;;;;;5091787;28;20042;-68
2022/12/25 01:40:15;;;;;;;38.92;11.88;;;6.00;99.90;;;;;;5091719;28;20066;-66
2022/12/25 01:42:41;;;;;;;37.97;12.00;;;6.00;99.90;;;;;;5090013;28;20111;-67
2022/12/25 01:45:26;;;;;;;31.10;11.15;;;6.10;99.90;;;;;;5090714;28;20071;-67
2022/12/25 01:47:52;;;;;;;30.30;10.82;;;6.10;99.90;;;;;;5124991;27;20069;-67
2022/12/25 01:50:19;;;;;;;37.67;11.63;;;6.10;99.90;;;;;;5091466;28;20039;-67
2022/12/25 01:52:45;;;;;;;42.78;12.77;;;6.10;99.90;;;;;;5090148;28;20042;-67
2022/12/25 01:55:11;;;;;;;41.40;12.43;;;6.20;99.90;;;;;;5088780;28;20078;-67
2022/12/25 01:57:38;;;;;;;40.33;12.85;;;6.20;99.90;;;;;;5090021;28;20039;-67
2022/12/25 02:00:05;;;;;;;35.90;13.20;;;6.20;99.90;;;;;;5089872;28;20436;-67
2022/12/25 02:02:31;;;;;;;37.17;12.27;;;6.30;99.90;;;;;;5093491;28;20036;-67
2022/12/25 02:05:02;;;;;;;41.10;13.57;;;6.30;99.90;;;;;;5093593;28;20039;-67
2022/12/25 02:07:31;;;;;;;36.85;11.75;;;6.30;99.90;;;;;;5095083;28;20036;-67
2022/12/25 02:09:57;;;;;;;42.40;13.05;;;6.40;99.90;;;;;;5111124;28;20458;-67
2022/12/25 02:12:29;;;;;;;33.70;11.43;;;6.40;99.90;;;;;;5094507;28;20114;-66
2022/12/25 02:14:58;;;;;;;35.47;11.10;;;6.40;99.90;;;;;;5124957;27;20150;-67
2022/12/25 02:17:27;;;;;;;36.17;12.15;;;6.40;99.90;;;;;;5094790;28;20510;-67
2022/12/25 02:20:23;;;;;;;31.48;11.80;;;6.40;99.90;;;;;;5092852;28;20063;-66
2022/12/25 02:23:26;;;;;;;32.67;11.02;;;6.50;99.90;;;;;;5128102;27;20524;-67
2022/12/25 02:26:21;;;;;;;39.15;11.85;;;6.60;99.90;;;;;;5094032;28;20091;-67
2022/12/25 02:29:03;;;;;;;31.42;11.05;;;6.60;99.90;;;;;;5092874;28;20119;-66
2022/12/25 02:32:11;;;;;;;35.13;12.17;;;6.70;99.90;;;;;;5093655;28;20086;-67
2022/12/25 02:35:03;;;;;;;36.90;11.07;;;6.70;99.90;;;;;;5050774;28;20729;-67
2022/12/25 02:37:35;;;;;;;;;;;6.70;99.90;;;;;;5060192;28;20059;-67
2022/12/25 02:40:06;;;;;;;33.67;10.57;;;6.80;99.90;;;;;;5055458;28;20371;-67
2022/12/25 03:08:08;;;;;;;25.95;10.57;;;7.10;99.90;;;;;;5066157;27;20040;-67
2022/12/25 03:13:27;;;;;;;34.20;10.75;;;7.10;99.90;;;;;;5093593;28;20448;-66
2022/12/25 03:18:38;;;;;;;33.25;10.90;;;7.10;99.90;;;;;;5093369;28;20046;-66
2022/12/25 03:26:56;;;;;;;30.20;9.77;;;7.20;99.90;;;;;;5093458;28;20425;-68
2022/12/25 03:32:34;;;;;;;35.50;12.48;;;7.20;99.90;;;;;;5126223;27;20035;-67
2022/12/25 03:35:24;;;;;;;24.58;10.82;;;7.20;99.90;;;;;;5031180;28;20099;-67
2022/12/25 04:36:43;;;;;;;27.00;10.90;;;7.30;99.90;;;;;;5109384;28;20054;-67
2022/12/25 04:39:09;;;;;;;34.42;11.10;;;7.30;99.90;;;;;;5087499;28;20043;-66
2022/12/25 04:41:35;;;;;;;25.88;10.85;;;7.30;99.90;;;;;;5092434;28;20040;-67
2022/12/25 04:44:01;;;;;;;28.17;10.50;;;7.30;99.90;;;;;;5086857;28;20512;-67
2022/12/25 04:46:27;;;;;;;27.75;10.85;;;7.30;99.90;;;;;;5123247;27;20548;-67
2022/12/25 04:48:52;;;;;;;25.50;10.52;;;7.30;99.90;;;;;;5126186;28;20517;-67
2022/12/25 04:51:22;;;;;;;32.65;12.25;;;7.30;99.90;;;;;;5090715;28;20410;-67
2022/12/25 04:53:48;;;;;;;27.42;12.25;;;7.30;99.90;;;;;;5110251;28;20034;-67
2022/12/25 04:56:15;;;;;;;33.35;12.82;;;7.40;99.90;;;;;;5071898;28;20061;-66
2022/12/25 04:58:41;;;;;;;32.42;12.07;;;7.40;99.90;;;;;;5092076;28;20035;-67
2022/12/25 05:01:07;;;;;;;28.30;11.55;;;7.40;99.90;;;;;;5089833;28;20493;-67
2022/12/25 05:03:33;;;;;;;35.03;13.77;;;7.40;99.90;;;;;;5075135;28;20036;-67
2022/12/25 05:06:00;;;;;;;36.40;14.07;;;7.50;99.90;;;;;;5092465;28;20043;-67
2022/12/25 05:08:27;;;;;;;34.95;14.13;;;7.50;99.90;;;;;;5092226;28;20054;-66
2022/12/25 05:10:52;;;;;;;40.70;14.80;;;7.50;99.90;;;;;;5090939;28;20405;-67
2022/12/25 05:13:18;;;;;;;40.40;14.25;;;7.50;99.90;;;;;;5075263;28;20039;-67
2022/12/25 05:15:44;;;;;;;37.35;14.00;;;7.50;99.90;;;;;;5090667;28;20043;-67
2022/12/25 05:18:10;;;;;;;33.53;14.43;;;7.60;99.90;;;;;;5125915;28;20140;-67
2022/12/25 05:20:35;;;;;;;33.60;15.30;;;7.60;99.90;;;;;;5091079;28;20511;-67
2022/12/25 05:23:01;;;;;;;45.33;16.02;;;7.60;99.90;;;;;;5091425;28;20409;-67
2022/12/25 05:25:27;;;;;;;36.42;16.17;;;7.60;99.90;;;;;;5091363;28;20096;-67
2022/12/25 05:27:52;;;;;;;37.55;16.05;;;7.70;99.90;;;;;;5092022;28;20076;-67
2022/12/25 05:30:18;;;;;;;35.50;16.67;;;7.70;99.90;;;;;;5091487;28;20509;-67
2022/12/25 05:32:44;;;;;;;36.50;17.02;;;7.70;99.90;;;;;;5108565;28;20043;-67
2022/12/25 05:35:09;;;;;;;39.10;16.35;;;7.80;99.90;;;;;;5091583;28;20687;-66
2022/12/25 05:37:35;;;;;;;41.75;16.77;;;7.80;99.90;;;;;;5073898;28;20833;-67
2022/12/25 05:40:01;;;;;;;40.58;18.05;;;7.80;99.90;;;;;;5078271;28;20443;-67
2022/12/25 05:42:27;;;;;;;42.55;18.02;;;7.90;99.90;;;;;;5093523;28;20486;-67
2022/12/25 05:44:53;;;;;;;44.13;18.33;;;7.90;99.90;;;;;;5112243;27;20040;-67
2022/12/25 05:47:19;;;;;;;35.33;17.55;;;7.90;99.90;;;;;;5091688;27;20044;-67
2022/12/25 05:49:44;;;;;;;39.95;18.20;;;7.90;99.90;;;;;;5094621;28;20043;-68
2022/12/25 05:52:10;;;;;;;35.35;16.83;;;8.00;99.90;;;;;;5093654;28;20043;-67
2022/12/25 05:54:35;;;;;;;41.17;17.48;;;8.00;99.90;;;;;;5093498;28;20044;-66
2022/12/25 05:57:01;;;;;;;38.00;17.98;;;8.00;99.90;;;;;;5093470;28;20443;-67
2022/12/25 05:59:32;;;;;;;32.70;16.30;;;8.10;99.90;;;;;;5095031;28;20039;-67
2022/12/25 06:01:58;;;;;;;42.25;17.38;;;8.10;99.90;;;;;;5093002;28;20070;-67
2022/12/25 06:04:25;;;;;;;34.30;17.35;;;8.10;99.90;;;;;;5092990;28;20495;-67
2022/12/25 06:06:52;;;;;;;35.58;16.80;;;8.10;99.90;;;;;;5076029;28;20100;-67
2022/12/25 06:09:17;;;;;;;37.58;17.70;;;8.20;99.90;;;;;;5094592;27;20107;-67
2022/12/25 06:11:43;;;;;;;38.55;16.98;;;8.20;99.90;;;;;;5094278;28;20494;-67
2022/12/25 06:14:13;;;;;;;35.08;16.75;;;8.20;99.90;;;;;;5094459;28;20497;-67
2022/12/25 06:16:39;;;;;;;34.28;16.55;;;8.20;99.90;;;;;;5127779;27;20517;-67
2022/12/25 06:19:05;;;;;;;36.03;16.17;;;8.20;99.90;;;;;;5093099;28;20060;-66
2022/12/25 06:21:30;;;;;;;31.55;15.18;;;8.20;99.90;;;;;;5092731;28;20035;-67
2022/12/25 06:23:59;;;;;;;32.08;14.90;;;8.20;99.90;;;;;;5095800;28;20127;-67
2022/12/25 06:26:24;;;;;;;30.92;14.30;;;8.20;99.90;;;;;;5124815;27;20482;-67
2022/12/25 06:28:51;;;;;;;32.78;14.88;;;8.20;99.90;;;;;;5090491;28;20088;-67
2022/12/25 06:31:19;;;;;;;30.00;14.93;;;8.20;99.90;;;;;;5092017;28;20050;-67
2022/12/25 06:33:45;;;;;;;31.60;14.48;;;8.30;99.90;;;;;;5119187;27;20071;-67
2022/12/25 06:36:20;;;;;;;27.50;13.65;;;8.20;99.90;;;;;;5090409;28;20114;-67
2022/12/25 06:38:46;;;;;;;28.25;14.15;;;8.20;99.90;;;;;;5126950;27;20105;-68
2022/12/25 06:41:15;;;;;;;32.60;14.20;;;8.20;99.90;;;;;;5093624;28;20067;-67
2022/12/25 06:43:40;;;;;;;28.95;13.73;;;8.20;99.90;;;;;;5091320;28;20035;-67
2022/12/25 06:46:09;;;;;;;28.73;14.55;;;8.20;99.90;;;;;;5093862;27;20096;-67
2022/12/25 06:48:36;;;;;;;29.75;13.65;;;8.30;99.90;;;;;;5075003;28;20401;-67
2022/12/25 06:51:03;;;;;;;21.77;12.90;;;8.30;99.90;;;;;;5091615;28;20105;-67
2022/12/25 06:53:29;;;;;;;24.48;13.52;;;8.30;99.90;;;;;;5125391;27;20028;-67
2022/12/25 06:56:03;;;;;;;24.63;12.40;;;8.30;99.90;;;;;;5124356;27;20031;-67
2022/12/25 06:58:29;;;;;;;27.48;12.80;;;8.30;99.90;;;;;;5092989;28;20435;-68
2022/12/25 07:00:54;;;;;;;28.75;13.75;;;8.30;99.90;;;;;;5122777;27;20112;-67
2022/12/25 07:03:21;;;;;;;28.23;13.02;;;8.30;99.90;;;;;;5093097;28;20473;-67
2022/12/25 07:05:47;;;;;;;24.85;12.30;;;8.30;99.90;;;;;;5126277;27;20042;-67
2022/12/25 07:08:12;;;;;;;26.13;13.02;;;8.30;99.90;;;;;;5092599;27;20043;-67
2022/12/25 07:10:39;;;;;;;24.25;12.43;;;8.30;99.90;;;;;;5092233;28;20039;-67
2022/12/25 07:13:04;;;;;;;27.65;13.10;;;8.20;99.90;;;;;;5092253;28;20517;-67
2022/12/25 07:15:30;;;;;;;20.40;11.60;;;8.30;99.90;;;;;;5092802;28;20036;-66
2022/12/25 07:17:56;;;;;;;19.98;11.82;;;8.30;99.90;;;;;;5091242;27;20043;-66
2022/12/25 07:20:21;;;;;;;21.98;10.73;;;8.20;99.90;;;;;;5076012;28;20047;-66
2022/12/25 07:22:47;;;;;;;17.25;9.63;;;8.20;99.90;;;;;;5092420;28;20053;-67
2022/12/25 07:25:13;;;;;;;20.00;10.88;;;8.20;99.90;;;;;;5091284;28;20048;-67
2022/12/25 07:27:39;;;;;;;19.58;10.52;;;8.20;99.90;;;;;;5123954;27;20035;-68
2022/12/25 07:30:06;;;;;;;23.13;11.38;;;8.20;99.90;;;;;;5087453;28;20118;-67
2022/12/25 07:32:32;;;;;;;17.90;10.73;;;8.20;99.90;;;;;;5091356;28;20043;-67
2022/12/25 07:34:57;;;;;;;19.05;10.23;;;8.20;99.90;;;;;;5090085;28;20036;-68
2022/12/25 07:37:23;;;;;;;19.30;10.65;;;8.20;99.90;;;;;;5073541;28;20095;-67
2022/12/25 07:39:49;;;;;;;22.92;9.90;;;8.20;99.90;;;;;;5090510;28;20502;-68
2022/12/25 07:42:14;;;;;;;22.10;10.15;;;8.20;99.90;;;;;;5087405;27;20048;-68
2022/12/25 07:44:40;;;;;;;21.35;10.13;;;8.20;99.90;;;;;;5092012;28;20034;-68
2022/12/25 07:47:06;;;;;;;21.98;9.80;;;8.20;99.90;;;;;;5107528;27;20136;-68
2022/12/25 07:49:31;;;;;;;18.77;9.43;;;8.20;99.90;;;;;;5091130;28;20095;-68
2022/12/25 07:51:57;;;;;;;16.95;8.98;;;8.20;99.90;;;;;;5091504;28;20027;-67
2022/12/25 07:54:23;;;;;;;15.75;8.27;;;8.20;99.90;;;;;;5090858;28;20058;-68
2022/12/25 07:56:51;;;;;;;23.02;9.07;;;8.20;99.90;;;;;;5123893;27;20046;-68
2022/12/25 07:59:17;;;;;;;15.02;8.18;;;8.20;99.90;;;;;;5103444;28;20126;-68
2022/12/25 08:01:42;;;;;;;17.35;8.63;;;8.20;99.90;;;;;;5125278;27;20110;-68
2022/12/25 08:04:09;;;;;;;15.80;8.07;;;8.20;99.90;;;;;;5091266;28;20158;-68
2022/12/25 08:06:35;;;;;;;16.40;8.35;;;8.20;99.90;;;;;;5091537;28;20442;-67
2022/12/25 08:09:11;;;;;;;17.52;7.75;;;8.20;99.90;;;;;;5092112;28;20027;-68
2022/12/25 08:11:37;;;;;;;17.17;7.97;;;8.20;99.90;;;;;;5090397;28;20047;-67
2022/12/25 08:14:07;;;;;;;19.13;7.60;;;8.20;99.90;;;;;;5125290;27;20046;-67
2022/12/25 08:16:34;;;;;;;17.10;7.60;;;8.20;99.90;;;;;;5123071;27;20390;-67
2022/12/25 08:19:00;;;;;;;14.88;7.63;;;8.20;99.90;;;;;;5125055;27;20031;-67
2022/12/25 08:21:25;;;;;;;15.38;6.93;;;8.20;99.90;;;;;;5091478;27;20131;-68
2022/12/25 08:23:51;;;;;;;16.25;8.02;;;8.20;99.90;;;;;;5091087;28;20039;-68
2022/12/25 08:26:19;;;;;;;15.10;7.20;;;8.20;99.90;;;;;;5083490;27;20135;-67
2022/12/25 08:28:46;;;;;;;20.15;8.23;;;8.20;99.90;;;;;;5065400;28;20056;-68
2022/12/25 08:31:21;;;;;;;15.77;8.02;;;8.30;99.90;;;;;;5085147;28;20055;-67
2022/12/25 08:33:48;;;;;;;15.98;7.97;;;8.20;99.90;;;;;;5121675;27;20074;-68
2022/12/25 08:36:15;;;;;;;16.60;7.47;;;8.20;99.90;;;;;;5090161;28;20040;-67
2022/12/25 08:38:41;;;;;;;19.83;7.82;;;8.30;99.90;;;;;;5087421;28;20042;-67
2022/12/25 08:41:08;;;;;;;15.75;7.80;;;8.30;99.90;;;;;;5087700;28;20079;-67
2022/12/25 08:43:33;;;;;;;12.15;7.15;;;8.20;99.90;;;;;;5087667;28;20118;-68
2022/12/25 08:45:59;;;;;;;14.95;7.50;;;8.30;99.90;;;;;;5088123;28;20111;-68
2022/12/25 08:48:24;;;;;;;14.05;7.22;;;8.30;99.90;;;;;;5087728;28;20048;-67
2022/12/25 08:50:51;;;;;;;15.98;8.13;;;8.30;99.90;;;;;;5069927;28;20044;-67
2022/12/25 08:53:17;;;;;;;17.55;7.85;;;8.20;99.90;;;;;;5087555;28;20032;-68
2022/12/25 08:55:43;;;;;;;13.40;7.60;;;8.30;99.90;;;;;;5087376;28;20070;-67
2022/12/25 08:58:09;;;;;;;14.13;7.05;;;8.30;99.90;;;;;;5087008;28;20071;-67
2022/12/25 09:00:35;;;;;;;14.63;7.00;;;8.30;99.90;;;;;;5086365;28;20110;-68
2022/12/25 09:03:02;;;;;;;17.88;7.35;;;8.20;99.90;;;;;;5070358;28;20390;-68
2022/12/25 09:05:27;;;;;;;16.83;7.00;;;8.30;99.90;;;;;;5087263;28;20062;-67
2022/12/25 09:07:53;;;;;;;14.55;7.00;;;8.30;99.90;;;;;;5070915;28;20134;-68
2022/12/25 09:10:19;;;;;;;17.60;7.30;;;8.30;99.90;;;;;;5089100;28;20039;-67
2022/12/25 09:12:45;;;;;;;14.48;6.70;;;8.30;99.90;;;;;;5090076;28;20032;-68
2022/12/25 09:15:11;;;;;;;13.48;6.65;;;8.30;99.90;;;;;;5107069;28;20089;-67
2022/12/25 09:17:37;;;;;;;14.32;6.68;;;8.30;99.90;;;;;;5105758;27;20044;-68
2022/12/25 09:20:03;;;;;;;14.70;7.53;;;8.30;99.90;;;;;;5088505;28;20059;-67
2022/12/25 09:22:29;;;;;;;13.75;7.40;;;8.30;99.90;;;;;;5089957;28;20043;-68
2022/12/25 09:24:54;;;;;;;15.52;7.40;;;8.30;99.90;;;;;;5089981;28;20051;-67
2022/12/25 09:27:20;;;;;;;16.67;7.18;;;8.30;99.90;;;;;;5090777;28;20449;-68
2022/12/25 09:29:46;;;;;;;13.75;6.60;;;8.40;99.90;;;;;;5093281;28;20595;-68
2022/12/25 09:32:11;;;;;;;14.40;6.45;;;8.40;99.90;;;;;;5093257;28;20089;-67
2022/12/25 09:34:37;;;;;;;15.77;7.18;;;8.40;99.90;;;;;;5093643;28;20402;-68
2022/12/25 09:37:02;;;;;;;13.18;6.53;;;8.40;99.90;;;;;;5091544;27;20043;-68
2022/12/25 09:39:28;;;;;;;14.70;6.95;;;8.50;99.90;;;;;;5093679;28;20474;-68
2022/12/25 09:42:13;;;;;;;12.57;7.10;;;8.60;99.90;;;;;;5091892;28;20491;-68
2022/12/25 09:44:47;;;;;;;11.85;6.20;;;8.50;99.90;;;;;;5092187;28;20436;-68
2022/12/25 09:47:19;;;;;;;11.50;6.65;;;8.60;99.90;;;;;;5126245;27;20111;-68
2022/12/25 09:50:10;;;;;;;12.93;6.50;;;8.60;99.90;;;;;;5092589;28;20482;-68
2022/12/25 09:52:45;;;;;;;13.38;6.65;;;8.60;99.90;;;;;;5075236;28;20490;-68
2022/12/25 09:55:11;;;;;;;14.73;6.38;;;8.70;99.90;;;;;;5092051;28;20044;-68
2022/12/25 09:57:37;;;;;;;12.48;6.88;;;8.70;99.90;;;;;;5108091;28;20616;-68
2022/12/25 10:00:05;;;;;;;12.07;6.53;;;8.60;99.90;;;;;;5124561;27;20032;-68
2022/12/25 10:02:46;;;;;;;12.07;6.03;;;8.60;99.90;;;;;;5092584;28;20044;-68
2022/12/25 10:05:30;;;;;;;10.25;6.40;;;8.60;99.90;;;;;;5093380;27;20035;-69
2022/12/25 10:08:34;;;;;;;10.50;5.60;;;8.60;99.90;;;;;;5093787;28;20040;-68
2022/12/25 10:11:17;;;;;;;10.95;6.30;;;8.60;99.90;;;;;;5074117;28;20044;-68
2022/12/25 10:14:37;;;;;;;12.77;5.80;;;8.60;99.90;;;;;;5091848;28;20043;-67
2022/12/25 10:17:15;;;;;;;11.73;6.30;;;8.60;99.90;;;;;;5028817;28;20094;-68
2022/12/25 10:19:59;;;;;;;11.38;5.57;;;8.60;99.90;;;;;;5032491;28;20041;-68
2022/12/25 10:22:38;;;;;;;16.92;6.25;;;8.60;99.90;;;;;;5032267;28;20044;-68
2022/12/25 10:25:08;;;;;;;11.20;6.30;;;8.70;99.90;;;;;;5032839;28;20052;-68
2022/12/25 10:27:40;;;;;;;12.07;5.70;;;8.70;99.90;;;;;;5033094;28;20041;-69
2022/12/25 10:30:20;;;;;;;12.82;5.32;;;8.70;99.90;;;;;;5032737;28;20064;-68
2022/12/25 10:32:47;;;;;;;9.45;5.65;;;8.70;99.90;;;;;;5033300;28;20045;-68
2022/12/25 10:35:19;;;;;;;12.65;5.82;;;8.70;99.90;;;;;;5033361;28;20438;-68
2022/12/25 10:37:52;;;;;;;15.43;5.35;;;8.70;99.90;;;;;;5032918;28;20049;-68
2022/12/25 10:40:23;;;;;;;9.90;5.85;;;8.70;99.90;;;;;;5033098;28;20180;-68
2022/12/25 10:42:54;;;;;;;11.10;5.35;;;8.70;99.90;;;;;;5033109;28;20453;-68
2022/12/25 10:45:19;;;;;;;14.23;5.30;;;8.70;99.90;;;;;;5032606;28;20061;-68
2022/12/25 10:47:46;;;;;;;13.63;6.05;;;8.80;99.90;;;;;;5033066;28;20049;-68
2022/12/25 10:50:25;;;;;;;9.10;5.30;;;8.80;99.90;;;;;;5050492;28;20062;-68
2022/12/25 10:53:07;;;;;;;15.02;5.72;;;8.80;99.90;;;;;;5128528;27;20032;-68
2022/12/25 10:55:33;;;;;;;9.57;5.20;;;8.90;99.90;;;;;;5128043;27;20478;-68
2022/12/25 10:58:00;;;;;;;11.82;5.50;;;8.90;99.90;;;;;;5093931;28;20120;-68
2022/12/25 11:00:31;;;;;;;11.88;5.90;;;8.90;99.90;;;;;;5094291;28;20488;-68
2022/12/25 11:02:58;;;;;;;10.27;5.78;;;8.90;99.90;;;;;;5076903;28;20074;-68
2022/12/25 11:05:30;;;;;;;16.42;6.15;;;8.90;99.90;;;;;;5076493;28;20054;-68
2022/12/25 11:07:58;;;;;;;8.90;4.90;;;9.00;99.90;;;;;;5093337;28;20040;-69
2022/12/25 11:10:27;;;;;;;10.23;5.55;;;9.00;99.90;;;;;;5107795;28;20074;-70
2022/12/25 11:12:53;;;;;;;9.82;5.10;;;9.00;99.90;;;;;;5076153;28;20505;-69
2022/12/25 11:15:35;;;;;;;10.82;4.85;;;9.00;99.90;;;;;;5092849;28;20038;-70
2022/12/25 11:18:02;;;;;;;10.05;6.10;;;9.00;99.90;;;;;;5092383;28;20038;-69
2022/12/25 11:20:29;;;;;;;9.23;4.63;;;9.00;99.90;;;;;;5127019;27;20548;-70
2022/12/25 11:22:54;;;;;;;8.90;4.60;;;9.00;99.90;;;;;;5092531;28;20039;-70
2022/12/25 11:25:23;;;;;;;11.30;4.70;;;9.00;99.90;;;;;;5075326;28;20043;-70
2022/12/25 11:28:03;;;;;;;11.82;4.72;;;9.00;99.90;;;;;;5092449;28;20107;-69
2022/12/25 11:30:32;;;;;;;11.15;4.85;;;9.00;99.90;;;;;;5092580;28;20494;-70
2022/12/25 11:33:06;;;;;;;10.85;5.15;;;9.10;99.90;;;;;;5126533;27;20032;-70
2022/12/25 11:35:44;;;;;;;7.68;4.80;;;9.10;99.90;;;;;;5125711;27;20027;-70
2022/12/25 11:38:10;;;;;;;12.30;5.03;;;9.10;99.90;;;;;;5125171;27;20171;-69
2022/12/25 11:40:47;;;;;;;8.55;5.45;;;9.10;99.90;;;;;;5125250;27;20121;-69
2022/12/25 11:43:19;;;;;;;9.63;5.13;;;9.20;99.90;;;;;;5126645;27;20402;-69
2022/12/25 11:45:51;;;;;;;8.33;4.93;;;9.20;99.90;;;;;;5092958;28;20046;-69
2022/12/25 11:48:22;;;;;;;8.90;4.32;;;9.20;99.90;;;;;;5075647;28;20394;-69
2022/12/25 11:50:53;;;;;;;10.85;4.78;;;9.20;99.90;;;;;;5125278;27;20035;-69
2022/12/25 11:53:27;;;;;;;6.65;4.75;;;9.20;99.90;;;;;;5126620;27;20031;-69
2022/12/25 11:56:00;;;;;;;9.50;4.97;;;9.20;99.90;;;;;;5091421;28;20126;-70
2022/12/25 11:58:38;;;;;;;11.27;5.78;;;9.20;99.90;;;;;;5092369;28;20038;-70
2022/12/25 12:01:16;;;;;;;9.98;4.97;;;9.20;99.90;;;;;;5091875;28;20099;-70
2022/12/25 12:03:43;;;;;;;11.95;5.13;;;9.20;99.90;;;;;;5091339;28;20046;-69
2022/12/25 12:06:42;;;;;;;9.52;4.72;;;9.20;99.90;;;;;;5092024;28;20043;-70
2022/12/25 12:09:23;;;;;;;7.68;4.57;;;9.20;99.90;;;;;;5091001;28;20036;-69
2022/12/25 12:11:59;;;;;;;7.53;4.82;;;9.20;99.90;;;;;;5091614;28;20031;-69
2022/12/25 12:14:51;;;;;;;7.97;4.38;;;9.20;99.90;;;;;;5074885;28;20122;-69
2022/12/25 12:17:17;;;;;;;11.20;4.67;;;9.20;99.90;;;;;;5090947;28;20039;-69
2022/12/25 12:19:44;;;;;;;9.07;4.43;;;9.20;99.90;;;;;;5091991;28;20042;-69
2022/12/25 12:22:23;;;;;;;9.45;4.63;;;9.20;99.90;;;;;;5108930;28;20520;-69
2022/12/25 12:25:02;;;;;;;11.18;4.82;;;9.20;99.90;;;;;;5125988;27;20386;-70
2022/12/25 12:27:36;;;;;;;11.13;4.63;;;9.30;99.90;;;;;;5091841;28;20047;-69
2022/12/25 12:30:04;;;;;;;8.38;4.47;;;9.20;99.90;;;;;;5124566;27;20104;-69
2022/12/25 12:32:37;;;;;;;11.43;4.85;;;9.30;99.90;;;;;;5091104;28;20114;-69
2022/12/25 12:35:29;;;;;;;12.90;4.90;;;9.30;99.90;;;;;;5126092;27;20123;-69
2022/12/25 12:37:58;;;;;;;8.98;5.30;;;9.20;99.90;;;;;;5030675;28;20420;-70
2022/12/25 12:40:35;;;;;;;9.63;5.43;;;9.30;99.90;;;;;;5030248;28;20045;-70
2022/12/25 12:43:01;;;;;;;9.82;5.47;;;9.30;99.90;;;;;;5030402;28;20057;-70
2022/12/25 12:45:31;;;;;;;11.65;5.43;;;9.30;99.90;;;;;;5046566;28;20076;-70
2022/12/25 12:47:57;;;;;;;8.93;5.32;;;9.30;99.90;;;;;;5031161;28;20418;-69
2022/12/25 12:50:25;;;;;;;8.77;4.93;;;9.30;99.90;;;;;;5046765;28;20041;-68
2022/12/25 12:52:51;;;;;;;12.32;5.30;;;9.30;99.90;;;;;;5030143;28;20044;-71
2022/12/25 12:55:34;;;;;;;11.95;5.70;;;9.30;99.90;;;;;;5029985;28;20053;-69
2022/12/25 12:58:00;;;;;;;;;;;9.30;99.90;;;;;;5064039;28;20051;-70
2022/12/25 13:00:41;;;;;;;9.75;5.60;;;9.30;99.90;;;;;;5030127;28;19955;-70
2022/12/25 13:03:44;;;;;;;13.60;7.22;;;9.20;99.90;;;;;;5028033;28;20092;-69
2022/12/25 13:06:16;;;;;;;14.82;6.90;;;9.30;99.90;;;;;;5029466;28;20187;-70
2022/12/25 13:09:11;;;;;;;10.73;6.47;;;9.20;99.90;;;;;;5029273;28;20435;-70
2022/12/25 13:11:41;;;;;;;11.80;6.13;;;9.20;99.90;;;;;;5040839;28;20053;-69
2022/12/25 13:14:15;;;;;;;13.18;7.60;;;9.30;99.90;;;;;;5040437;28;20051;-69
2022/12/25 13:16:43;;;;;;;11.80;7.40;;;9.30;99.90;;;;;;5107333;28;20134;-70
2022/12/25 13:19:15;;;;;;;12.32;7.32;;;9.30;99.90;;;;;;5090252;28;20472;-69
2022/12/25 13:21:57;;;;;;;13.80;7.93;;;9.20;99.90;;;;;;5090614;28;20084;-69
2022/12/25 13:24:26;;;;;;;18.35;10.45;;;9.20;99.90;;;;;;5091427;28;20044;-70
2022/12/25 13:26:51;;;;;;;13.82;8.68;;;9.20;99.90;;;;;;5091536;28;20394;-69
2022/12/25 13:29:37;;;;;;;12.90;8.60;;;9.20;99.90;;;;;;5091414;28;20030;-70
2022/12/25 13:32:05;;;;;;;18.58;7.93;;;9.20;99.90;;;;;;5090408;28;20040;-69
2022/12/25 13:34:39;;;;;;;16.00;8.55;;;9.10;99.90;;;;;;5125237;28;20036;-69
2022/12/25 13:37:13;;;;;;;14.52;9.05;;;9.10;99.90;;;;;;5125456;28;20071;-69
2022/12/25 13:39:55;;;;;;;15.77;9.90;;;9.10;99.90;;;;;;5091430;28;20067;-69
2022/12/25 13:42:34;;;;;;;17.55;9.50;;;9.10;99.90;;;;;;5091162;28;20067;-69
2022/12/25 13:45:17;;;;;;;16.48;10.98;;;9.10;99.90;;;;;;5125477;28;20500;-69
2022/12/25 13:47:44;;;;;;;16.27;10.13;;;9.10;99.90;;;;;;5091376;28;20036;-69
2022/12/25 13:50:20;;;;;;;16.38;10.85;;;9.00;99.90;;;;;;5125148;28;20067;-70
2022/12/25 13:52:45;;;;;;;18.98;11.43;;;9.00;99.90;;;;;;5091263;28;20039;-69
2022/12/25 13:55:15;;;;;;;18.65;11.98;;;9.00;99.90;;;;;;5091305;28;20040;-70
2022/12/25 13:57:58;;;;;;;20.92;12.10;;;9.00;99.90;;;;;;5093098;28;20035;-69
2022/12/25 14:00:44;;;;;;;19.13;12.65;;;9.00;99.90;;;;;;5095213;28;20548;-70
2022/12/25 14:03:32;;;;;;;22.00;12.80;;;9.00;99.90;;;;;;5077897;28;20039;-69
2022/12/25 14:06:00;;;;;;;19.77;13.80;;;9.00;99.90;;;;;;5095048;28;20043;-70
2022/12/25 14:08:30;;;;;;;19.55;13.57;;;9.00;99.90;;;;;;5094900;28;20058;-69
2022/12/25 14:10:57;;;;;;;22.42;13.77;;;9.00;99.90;;;;;;5094970;28;20035;-69
2022/12/25 14:13:26;;;;;;;22.13;14.68;;;8.90;99.90;;;;;;5094923;28;20043;-69
2022/12/25 14:15:53;;;;;;;20.80;14.30;;;9.00;99.90;;;;;;5129072;27;20086;-69
2022/12/25 14:18:20;;;;;;;18.30;14.40;;;9.00;99.90;;;;;;5094487;28;20046;-69
2022/12/25 14:21:02;;;;;;;19.20;14.48;;;8.90;99.90;;;;;;5128751;27;20047;-69
2022/12/25 14:23:43;;;;;;;18.83;14.10;;;8.90;99.90;;;;;;5094514;28;20044;-70
2022/12/25 14:26:18;;;;;;;21.42;14.20;;;9.00;99.90;;;;;;5094498;28;20055;-69
2022/12/25 14:28:53;;;;;;;19.63;13.95;;;8.90;99.90;;;;;;5094804;28;20481;-70
2022/12/25 14:31:20;;;;;;;20.27;14.60;;;8.90;99.90;;;;;;5094318;28;20044;-69
2022/12/25 14:33:46;;;;;;;20.05;14.15;;;8.90;99.90;;;;;;5094417;28;20097;-70
2022/12/25 14:36:13;;;;;;;18.77;13.80;;;8.90;99.90;;;;;;5094618;28;20043;-69
2022/12/25 14:38:41;;;;;;;20.05;14.18;;;8.90;99.90;;;;;;5077424;28;20489;-69